Terminal Aerodrome Forecast
Issued by NWS

Home | Current Version | Previous Version | Text Only | Print | Product List | Glossary On
Versions: 1 2 3 4 5 6 7 8 9 10 11 12 13 14 15
567
FTUS43 KFGF 080529
TAFTVF
TAF
KTVF 080529Z 0806/0906 35025G33KT 1SM -SN BLSN FEW009 OVC015
     FM080900 34023G30KT 2SM BLSN OVC015
     FM081300 34025G33KT P6SM BKN025
     FM090200 34012KT P6SM SCT120=

USA.gov is the U.S. government's official web portal to all federal, state and local government web resources and services.